sensor_id;sensor_type;location;lat;lon;timestamp;pressure;altitude;pressure_sealevel;temperature;humidity
50696;BME280;36665;51.786;21.594;2022-10-16T00:01:50;95432.86;;;11.95;74.71
50696;BME280;36665;51.786;21.594;2022-10-16T00:10:13;95397.77;;;11.86;74.75
50696;BME280;36665;51.786;21.594;2022-10-16T00:18:37;95346.94;;;11.74;74.66
50696;BME280;36665;51.786;21.594;2022-10-16T00:27:01;95338.57;;;11.71;74.80
50696;BME280;36665;51.786;21.594;2022-10-16T00:35:25;95345.20;;;11.72;74.61
50696;BME280;36665;51.786;21.594;2022-10-16T00:52:13;95328.84;;;11.69;74.83
50696;BME280;36665;51.786;21.594;2022-10-16T01:00:37;95338.89;;;11.71;74.81
50696;BME280;36665;51.786;21.594;2022-10-16T01:09:09;95351.19;;;11.73;74.87
50696;BME280;36665;51.786;21.594;2022-10-16T01:17:35;95343.14;;;11.72;75.00
50696;BME280;36665;51.786;21.594;2022-10-16T01:43:32;95351.83;;;11.74;74.92
50696;BME280;36665;51.786;21.594;2022-10-16T01:52:00;95368.65;;;11.78;74.86
50696;BME280;36665;51.786;21.594;2022-10-16T02:00:26;95387.29;;;11.83;75.06
50696;BME280;36665;51.786;21.594;2022-10-16T02:08:49;95387.54;;;11.82;75.15
50696;BME280;36665;51.786;21.594;2022-10-16T02:17:14;95393.84;;;11.84;75.04
50696;BME280;36665;51.786;21.594;2022-10-16T02:25:44;95396.11;;;11.84;75.04
50696;BME280;36665;51.786;21.594;2022-10-16T02:34:10;95381.39;;;11.81;74.94
50696;BME280;36665;51.786;21.594;2022-10-16T02:42:36;95366.40;;;11.76;75.15
50696;BME280;36665;51.786;21.594;2022-10-16T02:51:00;95363.33;;;11.76;75.08
50696;BME280;36665;51.786;21.594;2022-10-16T02:59:24;95343.42;;;11.71;75.02
50696;BME280;36665;51.786;21.594;2022-10-16T03:07:47;95301.27;;;11.60;75.25
50696;BME280;36665;51.786;21.594;2022-10-16T03:16:10;95296.34;;;11.59;75.04
50696;BME280;36665;51.786;21.594;2022-10-16T03:24:33;95306.25;;;11.61;75.14
50696;BME280;36665;51.786;21.594;2022-10-16T03:32:56;95305.36;;;11.61;75.19
50696;BME280;36665;51.786;21.594;2022-10-16T03:41:19;95290.30;;;11.57;75.25
50696;BME280;36665;51.786;21.594;2022-10-16T03:49:42;95305.77;;;11.60;75.24
50696;BME280;36665;51.786;21.594;2022-10-16T03:58:05;95330.45;;;11.67;75.24
50696;BME280;36665;51.786;21.594;2022-10-16T04:06:28;95333.70;;;11.68;75.24
50696;BME280;36665;51.786;21.594;2022-10-16T04:14:51;95321.48;;;11.65;75.16
50696;BME280;36665;51.786;21.594;2022-10-16T04:23:14;95313.49;;;11.61;75.37
50696;BME280;36665;51.786;21.594;2022-10-16T04:31:37;95319.07;;;11.63;75.39
50696;BME280;36665;51.786;21.594;2022-10-16T04:40:00;95323.31;;;11.64;75.33
50696;BME280;36665;51.786;21.594;2022-10-16T04:48:24;95295.67;;;11.57;75.43
50696;BME280;36665;51.786;21.594;2022-10-16T04:56:48;95283.98;;;11.54;75.51
50696;BME280;36665;51.786;21.594;2022-10-16T05:05:13;95282.65;;;11.54;75.45
50696;BME280;36665;51.786;21.594;2022-10-16T05:13:37;95252.27;;;11.46;75.40
50696;BME280;36665;51.786;21.594;2022-10-16T05:22:00;95224.27;;;11.40;75.51
50696;BME280;36665;51.786;21.594;2022-10-16T05:30:23;95224.05;;;11.39;75.71
50696;BME280;36665;51.786;21.594;2022-10-16T05:38:51;95238.39;;;11.42;75.65
50696;BME280;36665;51.786;21.594;2022-10-16T05:47:14;95251.95;;;11.46;75.71
50696;BME280;36665;51.786;21.594;2022-10-16T05:55:37;95273.69;;;11.52;75.67
50696;BME280;36665;51.786;21.594;2022-10-16T06:04:01;95298.25;;;11.58;75.51
50696;BME280;36665;51.786;21.594;2022-10-16T06:12:24;95366.29;;;11.75;75.53
50696;BME280;36665;51.786;21.594;2022-10-16T06:20:47;95447.25;;;11.93;75.84
50696;BME280;36665;51.786;21.594;2022-10-16T06:29:11;95484.81;;;12.03;75.64
50696;BME280;36665;51.786;21.594;2022-10-16T06:37:34;95492.20;;;12.05;75.95
50696;BME280;36665;51.786;21.594;2022-10-16T06:46:02;95551.40;;;12.20;75.61
50696;BME280;36665;51.786;21.594;2022-10-16T06:54:25;95666.91;;;12.48;75.85
50696;BME280;36665;51.786;21.594;2022-10-16T07:02:49;95819.11;;;12.86;75.92
50696;BME280;36665;51.786;21.594;2022-10-16T07:11:14;96191.46;;;13.76;76.07
50696;BME280;36665;51.786;21.594;2022-10-16T07:19:37;96429.75;;;14.35;76.28
50696;BME280;36665;51.786;21.594;2022-10-16T07:28:00;96671.41;;;14.93;76.39
50696;BME280;36665;51.786;21.594;2022-10-16T07:36:23;96968.56;;;15.63;76.35
50696;BME280;36665;51.786;21.594;2022-10-16T07:44:46;97156.80;;;16.08;76.64
50696;BME280;36665;51.786;21.594;2022-10-16T07:53:10;97272.40;;;16.35;76.54
50696;BME280;36665;51.786;21.594;2022-10-16T08:01:34;97186.61;;;16.14;76.66
50696;BME280;36665;51.786;21.594;2022-10-16T08:09:57;97212.34;;;16.20;76.63
50696;BME280;36665;51.786;21.594;2022-10-16T08:18:22;97275.33;;;16.35;76.62
50696;BME280;36665;51.786;21.594;2022-10-16T08:26:45;97396.26;;;16.64;76.49
50696;BME280;36665;51.786;21.594;2022-10-16T08:35:09;97588.02;;;17.09;76.56
50696;BME280;36665;51.786;21.594;2022-10-16T08:52:12;97579.44;;;17.08;76.55
50696;BME280;36665;51.786;21.594;2022-10-16T09:00:38;97600.31;;;17.13;76.56
50696;BME280;36665;51.786;21.594;2022-10-16T09:26:30;97839.77;;;17.69;76.25
50696;BME280;36665;51.786;21.594;2022-10-16T09:34:55;97863.25;;;17.74;76.32
50696;BME280;36665;51.786;21.594;2022-10-16T09:43:40;97823.16;;;17.65;76.23
50696;BME280;36665;51.786;21.594;2022-10-16T09:52:14;97829.71;;;17.67;76.12
50696;BME280;36665;51.786;21.594;2022-10-16T10:00:41;97833.27;;;17.68;76.11
50696;BME280;36665;51.786;21.594;2022-10-16T10:09:26;97869.70;;;17.78;76.14
50696;BME280;36665;51.786;21.594;2022-10-16T10:17:52;97888.84;;;17.82;76.01
50696;BME280;36665;51.786;21.594;2022-10-16T10:26:18;97869.45;;;17.77;75.91
50696;BME280;36665;51.786;21.594;2022-10-16T10:35:28;97842.02;;;17.70;75.79
50696;BME280;36665;51.786;21.594;2022-10-16T11:09:26;98052.78;;;18.21;75.57
50696;BME280;36665;51.786;21.594;2022-10-16T11:17:59;98085.70;;;18.29;75.72
50696;BME280;36665;51.786;21.594;2022-10-16T11:26:33;98104.79;;;18.34;75.42
50696;BME280;36665;51.786;21.594;2022-10-16T11:35:05;98133.27;;;18.41;75.46
50696;BME280;36665;51.786;21.594;2022-10-16T11:43:41;98183.63;;;18.52;75.41
50696;BME280;36665;51.786;21.594;2022-10-16T11:52:20;98247.02;;;18.67;75.37
50696;BME280;36665;51.786;21.594;2022-10-16T12:01:26;98239.02;;;18.66;75.44
50696;BME280;36665;51.786;21.594;2022-10-16T12:09:51;98256.36;;;18.70;75.31
50696;BME280;36665;51.786;21.594;2022-10-16T12:18:24;98306.36;;;18.81;75.31
50696;BME280;36665;51.786;21.594;2022-10-16T12:26:48;98317.98;;;18.84;75.36
50696;BME280;36665;51.786;21.594;2022-10-16T12:35:29;98276.01;;;18.75;75.33
50696;BME280;36665;51.786;21.594;2022-10-16T12:43:58;98231.61;;;18.65;75.20
50696;BME280;36665;51.786;21.594;2022-10-16T12:52:34;98192.27;;;18.56;74.93
50696;BME280;36665;51.786;21.594;2022-10-16T13:01:10;98158.23;;;18.48;74.85
50696;BME280;36665;51.786;21.594;2022-10-16T13:18:16;98058.75;;;18.27;74.82
50696;BME280;36665;51.786;21.594;2022-10-16T13:26:57;98048.94;;;18.25;74.73
50696;BME280;36665;51.786;21.594;2022-10-16T13:35:32;98053.77;;;18.26;74.64
50696;BME280;36665;51.786;21.594;2022-10-16T13:43:56;98020.59;;;18.18;74.65
50696;BME280;36665;51.786;21.594;2022-10-16T13:52:20;97994.14;;;18.13;74.55
50696;BME280;36665;51.786;21.594;2022-10-16T14:00:58;97931.33;;;17.99;74.69
50696;BME280;36665;51.786;21.594;2022-10-16T14:09:29;97853.91;;;17.81;74.52
50696;BME280;36665;51.786;21.594;2022-10-16T14:17:53;97804.69;;;17.69;74.24
50696;BME280;36665;51.786;21.594;2022-10-16T14:26:20;97770.66;;;17.62;74.15
50696;BME280;36665;51.786;21.594;2022-10-16T14:34:53;97711.92;;;17.48;74.23
50696;BME280;36665;51.786;21.594;2022-10-16T14:43:29;97639.04;;;17.32;74.14
50696;BME280;36665;51.786;21.594;2022-10-16T14:51:52;97588.56;;;17.19;73.93
50696;BME280;36665;51.786;21.594;2022-10-16T15:00:21;97567.20;;;17.14;74.06
50696;BME280;36665;51.786;21.594;2022-10-16T15:08:44;97533.95;;;17.06;74.15
50696;BME280;36665;51.786;21.594;2022-10-16T15:17:11;97503.36;;;16.99;74.21
50696;BME280;36665;51.786;21.594;2022-10-16T15:25:43;97495.55;;;16.98;74.05
50696;BME280;36665;51.786;21.594;2022-10-16T15:34:09;97475.20;;;16.94;73.84
50696;BME280;36665;51.786;21.594;2022-10-16T15:42:32;97422.42;;;16.81;73.79
50696;BME280;36665;51.786;21.594;2022-10-16T15:50:55;97369.67;;;16.69;73.79
50696;BME280;36665;51.786;21.594;2022-10-16T15:59:18;97313.17;;;16.55;73.66
50696;BME280;36665;51.786;21.594;2022-10-16T16:07:40;97262.38;;;16.43;73.70
50696;BME280;36665;51.786;21.594;2022-10-16T16:16:08;97216.42;;;16.33;73.82
50696;BME280;36665;51.786;21.594;2022-10-16T16:24:32;97184.96;;;16.26;73.76
50696;BME280;36665;51.786;21.594;2022-10-16T16:32:55;97145.46;;;16.15;73.58
50696;BME280;36665;51.786;21.594;2022-10-16T16:41:20;97086.76;;;16.02;73.62
50696;BME280;36665;51.786;21.594;2022-10-16T16:49:44;97048.19;;;15.92;73.48
50696;BME280;36665;51.786;21.594;2022-10-16T16:58:06;97009.31;;;15.84;73.43
50696;BME280;36665;51.786;21.594;2022-10-16T17:06:29;96963.04;;;15.73;73.43
50696;BME280;36665;51.786;21.594;2022-10-16T17:14:52;96933.64;;;15.65;73.42
50696;BME280;36665;51.786;21.594;2022-10-16T17:23:17;96907.73;;;15.60;73.44
50696;BME280;36665;51.786;21.594;2022-10-16T17:31:41;96861.69;;;15.49;73.55
50696;BME280;36665;51.786;21.594;2022-10-16T17:40:04;96803.07;;;15.34;73.40
50696;BME280;36665;51.786;21.594;2022-10-16T17:48:27;96769.89;;;15.27;73.52
50696;BME280;36665;51.786;21.594;2022-10-16T17:56:50;96764.19;;;15.25;73.38
50696;BME280;36665;51.786;21.594;2022-10-16T18:05:13;96747.86;;;15.22;73.56
50696;BME280;36665;51.786;21.594;2022-10-16T18:13:36;96711.47;;;15.12;73.37
50696;BME280;36665;51.786;21.594;2022-10-16T18:21:59;96686.09;;;15.07;73.37
50696;BME280;36665;51.786;21.594;2022-10-16T18:30:22;96677.59;;;15.04;73.46
50696;BME280;36665;51.786;21.594;2022-10-16T18:38:45;96637.14;;;14.95;73.37
50696;BME280;36665;51.786;21.594;2022-10-16T18:47:08;96582.41;;;14.82;73.33
50696;BME280;36665;51.786;21.594;2022-10-16T18:55:31;96553.84;;;14.75;73.30
50696;BME280;36665;51.786;21.594;2022-10-16T19:03:58;96525.67;;;14.68;73.47
50696;BME280;36665;51.786;21.594;2022-10-16T19:12:22;96479.19;;;14.57;73.40
50696;BME280;36665;51.786;21.594;2022-10-16T19:20:45;96416.51;;;14.41;73.59
50696;BME280;36665;51.786;21.594;2022-10-16T19:29:08;96358.52;;;14.27;73.46
50696;BME280;36665;51.786;21.594;2022-10-16T19:37:32;96286.08;;;14.09;73.34
50696;BME280;36665;51.786;21.594;2022-10-16T19:45:54;96200.06;;;13.87;73.42
50696;BME280;36665;51.786;21.594;2022-10-16T19:54:17;96122.01;;;13.69;73.21
50696;BME280;36665;51.786;21.594;2022-10-16T20:02:40;96050.85;;;13.51;73.26
50696;BME280;36665;51.786;21.594;2022-10-16T20:11:05;95981.35;;;13.34;73.25
50696;BME280;36665;51.786;21.594;2022-10-16T20:19:28;95920.41;;;13.20;73.20
50696;BME280;36665;51.786;21.594;2022-10-16T20:27:51;95906.50;;;13.16;73.15
50696;BME280;36665;51.786;21.594;2022-10-16T20:36:15;95918.91;;;13.19;73.19
50696;BME280;36665;51.786;21.594;2022-10-16T20:44:38;95896.44;;;13.14;73.19
50696;BME280;36665;51.786;21.594;2022-10-16T20:53:02;95879.24;;;13.09;73.33
50696;BME280;36665;51.786;21.594;2022-10-16T21:01:27;95887.20;;;13.11;73.38
50696;BME280;36665;51.786;21.594;2022-10-16T21:09:50;95859.90;;;13.04;73.33
50696;BME280;36665;51.786;21.594;2022-10-16T21:18:15;95874.51;;;13.08;73.31
50696;BME280;36665;51.786;21.594;2022-10-16T21:26:38;95916.48;;;13.19;73.25
50696;BME280;36665;51.786;21.594;2022-10-16T21:35:01;95924.02;;;13.20;73.26
50696;BME280;36665;51.786;21.594;2022-10-16T21:43:24;95869.97;;;13.07;73.57
50696;BME280;36665;51.786;21.594;2022-10-16T21:51:49;95807.17;;;12.91;73.52
50696;BME280;36665;51.786;21.594;2022-10-16T22:00:12;95744.05;;;12.76;73.44
50696;BME280;36665;51.786;21.594;2022-10-16T22:08:36;95689.91;;;12.63;73.47
50696;BME280;36665;51.786;21.594;2022-10-16T22:16:59;95643.10;;;12.50;73.44
50696;BME280;36665;51.786;21.594;2022-10-16T22:25:22;95597.64;;;12.38;73.41
50696;BME280;36665;51.786;21.594;2022-10-16T22:33:46;95548.09;;;12.27;73.51
50696;BME280;36665;51.786;21.594;2022-10-16T22:42:08;95502.98;;;12.15;73.28
50696;BME280;36665;51.786;21.594;2022-10-16T22:50:32;95450.05;;;12.01;73.37
50696;BME280;36665;51.786;21.594;2022-10-16T22:58:54;95392.00;;;11.87;73.30
50696;BME280;36665;51.786;21.594;2022-10-16T23:07:17;95336.69;;;11.73;73.31
50696;BME280;36665;51.786;21.594;2022-10-16T23:15:41;95288.57;;;11.61;73.32
50696;BME280;36665;51.786;21.594;2022-10-16T23:24:05;95217.34;;;11.43;73.46
50696;BME280;36665;51.786;21.594;2022-10-16T23:32:29;95150.71;;;11.25;73.44
50696;BME280;36665;51.786;21.594;2022-10-16T23:40:52;95105.05;;;11.13;73.45
50696;BME280;36665;51.786;21.594;2022-10-16T23:49:15;95077.20;;;11.07;73.45
50696;BME280;36665;51.786;21.594;2022-10-16T23:57:38;95076.30;;;11.07;73.32
